Time;durP1;ratioP1;P1;durP2;ratioP2;P2;SDS_P1;SDS_P2;PMS_P1;PMS_P2;Temp;Humidity;BMP_temperature;BMP_pressure;BME280_temperature;BME280_humidity;BME280_pressure;Samples;Min_cycle;Max_cycle;Signal;HPM_P1;HPM_P2
2022/12/06 00:01:07;;;;;;;;;45.75;37.25;;;;;6.51;54.42;101998.31;2446595;27;45502;-87
2022/12/06 00:02:17;;;;;;;;;50.25;38.00;;;;;6.52;54.40;102000.03;2447913;27;45584;-87
2022/12/06 00:03:28;;;;;;;;;42.00;35.75;;;;;6.51;54.43;101997.44;2452306;27;47157;-86
2022/12/06 00:04:38;;;;;;;;;50.75;38.25;;;;;6.51;54.40;102000.03;2456695;27;44889;-86
2022/12/06 00:05:48;;;;;;;;;44.00;34.50;;;;;6.51;54.77;101993.09;2449620;27;46920;-87
2022/12/06 00:06:59;;;;;;;;;46.50;37.25;;;;;6.51;54.89;101992.22;2454107;27;45334;-88
2022/12/06 00:08:09;;;;;;;;;37.75;34.00;;;;;6.50;55.15;101991.31;2459193;27;45393;-88
2022/12/06 00:09:26;;;;;;;;;50.75;39.00;;;;;6.51;55.23;101989.59;2450944;27;45363;-88
2022/12/06 00:10:37;;;;;;;;;37.50;31.75;;;;;6.52;54.94;101983.47;2459128;27;47049;-86
2022/12/06 00:11:47;;;;;;;;;51.25;37.25;;;;;6.51;55.04;101986.97;2457788;27;45743;-87
2022/12/06 00:12:57;;;;;;;;;51.50;35.75;;;;;6.49;55.16;101983.50;2451193;28;45433;-88
2022/12/06 00:14:10;;;;;;;;;42.25;35.25;;;;;6.49;54.78;101986.09;2451139;28;45365;-88
2022/12/06 00:15:20;;;;;;;;;49.25;39.25;;;;;6.48;55.07;101985.22;2444310;28;46134;-88
2022/12/06 00:16:32;;;;;;;;;36.75;31.75;;;;;6.46;54.75;101979.13;2453832;27;45241;-86
2022/12/06 00:17:42;;;;;;;;;40.25;33.50;;;;;6.46;55.20;101980.88;2458157;27;48060;-87
2022/12/06 00:18:53;;;;;;;;;42.75;36.25;;;;;6.44;55.23;101975.66;2446787;28;45818;-87
2022/12/06 00:20:05;;;;;;;;;49.25;34.25;;;;;6.45;55.33;101979.97;2447386;28;45395;-87
2022/12/06 00:21:17;;;;;;;;;50.00;36.00;;;;;6.45;55.27;101982.59;2449928;28;45448;-87
2022/12/06 00:22:28;;;;;;;;;33.75;30.75;;;;;6.45;56.04;101977.38;2445115;27;47112;-87
2022/12/06 00:23:40;;;;;;;;;40.25;35.25;;;;;6.47;55.89;101975.63;2451269;28;45270;-87
2022/12/06 00:24:51;;;;;;;;;43.25;32.50;;;;;6.46;55.72;101973.03;2444374;28;47327;-87
2022/12/06 00:26:01;;;;;;;;;45.25;36.75;;;;;6.45;55.73;101976.50;2451444;28;45302;-87
2022/12/06 00:27:12;;;;;;;;;45.00;36.00;;;;;6.43;55.58;101973.00;2450554;28;47543;-87
2022/12/06 00:28:22;;;;;;;;;51.50;37.00;;;;;6.40;55.25;101963.41;2451464;28;45245;-87
2022/12/06 00:29:32;;;;;;;;;38.75;33.25;;;;;6.38;55.70;101970.38;2451877;27;45377;-87
2022/12/06 00:30:43;;;;;;;;;45.25;35.50;;;;;6.36;56.03;101962.53;2451144;28;45176;-87
2022/12/06 00:31:53;;;;;;;;;49.50;37.75;;;;;6.37;56.35;101964.28;2443863;28;47178;-87
2022/12/06 00:33:03;;;;;;;;;46.25;36.50;;;;;6.37;56.09;101959.06;2444261;28;44687;-88
2022/12/06 00:34:14;;;;;;;;;37.50;32.50;;;;;6.38;56.12;101963.41;2443687;28;48332;-87
2022/12/06 00:35:24;;;;;;;;;40.75;35.00;;;;;6.38;55.92;101959.94;2445314;27;45433;-87
2022/12/06 00:36:37;;;;;;;;;40.75;33.00;;;;;6.37;55.91;101963.41;2451924;27;46261;-88
2022/12/06 00:37:48;;;;;;;;;49.25;35.00;;;;;6.38;56.32;101967.75;2451757;27;45212;-87
2022/12/06 00:38:59;;;;;;;;;43.75;35.00;;;;;6.37;55.80;101960.81;2450822;28;47912;-87
2022/12/06 00:40:10;;;;;;;;;41.75;35.50;;;;;6.38;56.58;101957.31;2443939;28;45263;-88
2022/12/06 00:41:23;;;;;;;;;46.00;33.75;;;;;6.41;56.89;101962.56;2451246;28;45373;-88
2022/12/06 00:42:33;;;;;;;;;41.50;34.75;;;;;6.40;56.58;101960.81;2450727;27;45246;-87
2022/12/06 00:43:44;;;;;;;;;43.00;37.50;;;;;6.40;56.64;101955.56;2443786;27;48392;-88
2022/12/06 00:44:54;;;;;;;;;43.00;36.75;;;;;6.41;57.10;101959.94;2461309;27;45278;-87
2022/12/06 00:46:07;;;;;;;;;37.00;33.00;;;;;6.43;56.83;101958.22;2463922;27;47024;-88
2022/12/06 00:47:17;;;;;;;;;40.50;35.25;;;;;6.43;57.42;101953.00;2457419;27;45265;-88
2022/12/06 00:48:28;;;;;;;;;45.00;36.25;;;;;6.43;57.13;101958.22;2451173;28;46111;-87
2022/12/06 00:49:38;;;;;;;;;44.25;35.00;;;;;6.46;57.10;101946.91;2451793;28;45301;-87
2022/12/06 00:50:48;;;;;;;;;50.25;37.25;;;;;6.45;57.08;101945.16;2451579;27;46214;-87
2022/12/06 00:51:59;;;;;;;;;45.50;35.75;;;;;6.46;57.12;101958.22;2451811;27;45257;-87
2022/12/06 00:53:09;;;;;;;;;46.00;36.00;;;;;6.47;57.26;101952.13;2451674;27;46174;-87
2022/12/06 00:54:19;;;;;;;;;31.50;28.75;;;;;6.46;57.52;101947.78;2450920;28;45253;-87
2022/12/06 00:55:30;;;;;;;;;43.00;35.25;;;;;6.47;57.35;101949.50;2450822;28;46163;-88
2022/12/06 00:56:40;;;;;;;;;41.00;34.25;;;;;6.47;57.47;101944.28;2451796;27;45214;-87
2022/12/06 00:57:51;;;;;;;;;43.75;34.00;;;;;6.47;57.69;101949.50;2451418;27;46309;-88
2022/12/06 00:59:02;;;;;;;;;48.75;36.00;;;;;6.49;57.23;101955.63;2450957;28;45369;-88
2022/12/06 01:00:13;;;;;;;;;40.50;36.25;;;;;6.49;57.74;101952.16;2451020;28;46302;-88
2022/12/06 01:01:26;;;;;;;;;41.75;32.75;;;;;6.49;57.72;101955.63;2451796;27;45133;-88
2022/12/06 01:02:37;;;;;;;;;52.25;38.50;;;;;6.47;57.56;101949.50;2450477;27;45519;-87
2022/12/06 01:03:52;;;;;;;;;40.75;33.75;;;;;6.47;57.48;101956.50;2455054;27;45487;-87
2022/12/06 01:05:03;;;;;;;;;39.75;35.00;;;;;6.45;57.38;101953.88;2450509;28;47367;-87
2022/12/06 01:06:14;;;;;;;;;45.50;36.25;;;;;6.47;57.59;101943.44;2456473;27;45550;-88
2022/12/06 01:07:25;;;;;;;;;41.75;35.75;;;;;6.46;57.09;101949.53;2444647;27;47173;-87
2022/12/06 01:08:36;;;;;;;;;43.00;36.25;;;;;6.45;57.86;101948.63;2461163;27;44640;-87
2022/12/06 01:09:46;;;;;;;;;45.00;35.75;;;;;6.45;57.79;101945.16;2453884;27;45397;-87
2022/12/06 01:10:57;;;;;;;;;48.25;38.00;;;;;6.46;58.07;101950.41;2450375;28;45578;-88
2022/12/06 01:12:07;;;;;;;;;42.00;35.00;;;;;6.44;57.91;101952.13;2450697;28;45326;-87
2022/12/06 01:13:18;;;;;;;;;36.25;33.50;;;;;6.47;57.64;101948.66;2450748;27;45529;-87
2022/12/06 01:14:28;;;;;;;;;43.25;36.25;;;;;6.45;57.62;101959.09;2440949;28;48212;-87
2022/12/06 01:15:38;;;;;;;;;48.50;35.25;;;;;6.46;57.74;101947.78;2449013;27;45231;-87
2022/12/06 01:16:49;;;;;;;;;45.00;37.00;;;;;6.46;57.80;101949.53;2452841;27;47309;-87
2022/12/06 01:17:59;;;;;;;;;40.50;35.00;;;;;6.45;57.92;101947.75;2457450;27;45320;-87
2022/12/06 01:19:11;;;;;;;;;44.50;36.00;;;;;6.45;57.91;101946.03;2451501;27;45345;-88
2022/12/06 01:20:21;;;;;;;;;45.00;35.75;;;;;6.46;57.90;101946.91;2450832;27;45296;-87
2022/12/06 01:21:32;;;;;;;;;42.25;38.00;;;;;6.47;57.89;101949.50;2450873;28;45435;-87
2022/12/06 01:22:42;;;;;;;;;49.50;40.25;;;;;6.48;58.09;101951.28;2463397;27;44654;-87
2022/12/06 01:23:55;;;;;;;;;43.00;36.25;;;;;6.49;57.90;101952.16;2448006;28;47308;-87
2022/12/06 01:25:06;;;;;;;;;38.00;32.75;;;;;6.48;58.12;101948.66;2462343;27;45486;-87
2022/12/06 01:26:19;;;;;;;;;49.75;36.00;;;;;6.47;57.87;101946.06;2457694;27;47213;-87
2022/12/06 01:27:30;;;;;;;;;51.25;38.75;;;;;6.46;57.74;101942.56;2450783;28;45235;-87
2022/12/06 01:28:40;;;;;;;;;46.75;35.50;;;;;6.46;58.00;101946.91;2450664;28;47136;-87
2022/12/06 01:29:50;;;;;;;;;51.75;36.50;;;;;6.45;58.38;101948.63;2443700;28;45435;-87
2022/12/06 01:31:06;;;;;;;;;50.00;40.00;;;;;6.44;57.71;101949.53;2450897;28;46417;-87
2022/12/06 01:32:16;;;;;;;;;31.25;24.50;;;;;6.42;57.78;101951.22;2449473;28;44542;-87
2022/12/06 01:33:27;;;;;;;;;46.00;37.25;;;;;6.43;58.23;101953.00;2441206;28;46797;-87
2022/12/06 01:34:37;;;;;;;;;47.50;39.00;;;;;6.41;57.59;101952.13;2447447;28;45357;-87
2022/12/06 01:35:48;;;;;;;;;46.75;36.25;;;;;6.39;57.71;101946.00;2453306;27;47299;-88
2022/12/06 01:36:58;;;;;;;;;49.00;39.00;;;;;6.41;58.35;101949.50;2433878;28;45250;-88
2022/12/06 01:38:09;;;;;;;;;50.00;36.25;;;;;6.42;58.34;101948.63;2461944;27;46646;-88
2022/12/06 01:39:20;;;;;;;;;45.00;36.25;;;;;6.41;58.43;101949.50;2457676;27;45233;-88
2022/12/06 01:40:36;;;;;;;;;44.25;35.25;;;;;6.41;58.70;101946.88;2463067;27;47272;-87
2022/12/06 01:41:46;;;;;;;;;49.50;36.25;;;;;6.39;58.32;101946.91;2463817;27;45278;-88
2022/12/06 01:42:57;;;;;;;;;48.75;36.00;;;;;6.39;58.43;101946.00;2450969;27;46257;-87
2022/12/06 01:44:42;;;;;;;;;42.00;31.50;;;;;6.40;58.14;101947.75;2450583;28;45341;-87
2022/12/06 01:45:52;;;;;;;;;47.50;37.50;;;;;6.39;58.35;101949.50;2448190;28;47630;-87
2022/12/06 01:47:04;;;;;;;;;47.00;34.25;;;;;6.41;59.11;101941.66;2450225;28;45384;-87
2022/12/06 01:48:14;;;;;;;;;49.50;36.25;;;;;6.41;59.17;101942.53;2443618;28;47642;-87
2022/12/06 01:49:31;;;;;;;;;50.75;37.50;;;;;6.45;58.86;101942.53;2453152;27;45286;-88
2022/12/06 01:50:41;;;;;;;;;47.50;37.25;;;;;6.45;59.02;101939.91;2450250;28;46974;-87
2022/12/06 01:52:01;;;;;;;;;41.00;36.50;;;;;6.47;59.20;101946.06;2443556;28;45280;-88
2022/12/06 01:53:12;;;;;;;;;40.75;35.00;;;;;6.47;58.83;101946.91;2450681;27;46154;-88
2022/12/06 01:54:24;;;;;;;;;48.25;35.25;;;;;6.48;59.15;101947.78;2448869;28;45566;-87
2022/12/06 01:55:37;;;;;;;;;50.00;36.00;;;;;6.45;58.72;101943.41;2451226;27;45574;-87
2022/12/06 01:56:50;;;;;;;;;52.50;37.25;;;;;6.45;58.48;101952.97;2450331;28;45278;-88
2022/12/06 01:58:06;;;;;;;;;45.50;38.50;;;;;6.44;58.66;101946.91;2450185;28;47135;-87
2022/12/06 01:59:18;;;;;;;;;45.50;35.00;;;;;6.43;58.35;101958.22;2444149;28;44703;-87
2022/12/06 02:00:29;;;;;;;;;45.50;38.50;;;;;6.43;58.80;101944.28;2453281;27;47228;-87
2022/12/06 02:01:39;;;;;;;;;47.75;39.00;;;;;6.45;58.78;101947.75;2457762;27;44678;-87
2022/12/06 02:02:50;;;;;;;;;44.00;35.25;;;;;6.46;58.38;101953.00;2450156;27;45326;-88
2022/12/06 02:04:01;;;;;;;;;50.00;40.00;;;;;6.45;58.75;101946.03;2450430;27;45322;-87
2022/12/06 02:05:12;;;;;;;;;50.50;39.00;;;;;6.46;59.01;101947.78;2450098;27;48053;-87
2022/12/06 02:06:23;;;;;;;;;44.25;37.50;;;;;6.48;59.25;101946.03;2451471;27;44594;-87
2022/12/06 02:07:34;;;;;;;;;42.25;36.75;;;;;6.50;58.97;101946.03;2450835;28;46448;-88
2022/12/06 02:08:45;;;;;;;;;49.00;37.00;;;;;6.49;59.40;101945.19;2451254;28;45238;-87
2022/12/06 02:09:56;;;;;;;;;45.50;33.75;;;;;6.51;59.44;101948.69;2460168;27;47283;-87
2022/12/06 02:11:07;;;;;;;;;49.25;39.25;;;;;6.51;59.24;101947.81;2457663;27;44709;-87
2022/12/06 02:12:18;;;;;;;;;52.50;38.75;;;;;6.51;59.55;101946.06;2459896;27;47237;-87
2022/12/06 02:13:30;;;;;;;;;42.75;33.00;;;;;6.52;59.17;101954.75;2457900;27;44666;-87
2022/12/06 02:14:47;;;;;;;;;49.25;37.75;;;;;6.50;59.25;101954.75;2450328;28;47032;-87
2022/12/06 02:16:06;;;;;;;;;48.50;36.00;;;;;6.51;58.65;101953.03;2450372;28;45357;-88
2022/12/06 02:17:36;;;;;;;;;47.50;35.00;;;;;6.50;58.89;101953.88;2450553;28;45366;-87
2022/12/06 02:18:53;;;;;;;;;39.50;31.75;;;;;6.48;59.42;101951.28;2450514;28;45293;-87
2022/12/06 02:20:31;;;;;;;;;46.75;37.25;;;;;6.46;59.23;101949.53;2450596;28;46325;-87
2022/12/06 02:21:50;;;;;;;;;43.75;37.50;;;;;6.47;58.94;101953.88;2450844;27;45463;-87
2022/12/06 02:23:15;;;;;;;;;50.75;39.25;;;;;6.47;59.69;101953.88;2456660;27;48435;-87
2022/12/06 02:24:32;;;;;;;;;54.50;39.00;;;;;6.47;59.90;101957.34;2441017;28;45266;-87
2022/12/06 02:26:07;;;;;;;;;47.25;36.00;;;;;6.48;60.03;101961.72;2441230;28;45402;-87
2022/12/06 02:27:20;;;;;;;;;50.00;37.00;;;;;6.48;59.53;101961.72;2449856;28;45483;-87
2022/12/06 02:28:57;;;;;;;;;43.50;35.00;;;;;6.49;59.59;101962.59;2443327;28;47303;-87
2022/12/06 02:30:37;;;;;;;;;55.50;41.25;;;;;6.49;59.21;101958.25;2450895;28;45411;-87
2022/12/06 02:32:10;;;;;;;;;43.50;37.75;;;;;6.48;59.15;101958.22;2427990;27;46579;-87
2022/12/06 02:33:26;;;;;;;;;51.00;38.75;;;;;6.47;58.99;101961.72;2450254;28;45455;-87
2022/12/06 02:34:51;;;;;;;;;42.75;33.75;;;;;6.47;59.51;101954.72;2449268;28;47057;-87
2022/12/06 02:36:09;;;;;;;;;42.50;34.50;;;;;6.45;59.69;101951.25;2445483;28;45224;-87
2022/12/06 02:37:26;;;;;;;;;47.50;38.25;;;;;6.44;59.65;101959.09;2443988;28;47530;-87
2022/12/06 02:38:48;;;;;;;;;41.75;34.75;;;;;6.46;59.84;101963.47;2453866;27;44596;-87
2022/12/06 02:40:13;;;;;;;;;42.25;35.50;;;;;6.47;59.86;101959.97;2456181;27;46469;-88
2022/12/06 02:41:29;;;;;;;;;49.25;39.00;;;;;6.45;59.64;101956.47;2450394;28;44639;-87
2022/12/06 02:43:04;;;;;;;;;50.00;38.25;;;;;6.46;59.79;101953.00;2450137;28;45463;-87
2022/12/06 02:44:23;;;;;;;;;44.75;38.25;;;;;6.46;59.63;101950.41;2460107;27;45364;-87
2022/12/06 02:45:39;;;;;;;;;54.00;39.00;;;;;6.44;59.98;101946.03;2459247;27;47112;-87
2022/12/06 02:46:52;;;;;;;;;47.75;35.75;;;;;6.42;59.84;101943.41;2456140;27;44744;-88
2022/12/06 02:48:05;;;;;;;;;44.25;36.50;;;;;6.41;59.99;101937.31;2443451;28;47366;-87
2022/12/06 02:49:17;;;;;;;;;42.25;35.00;;;;;6.42;60.28;101943.41;2452764;27;45275;-87
2022/12/06 02:50:34;;;;;;;;;47.00;35.75;;;;;6.43;60.05;101941.66;2456879;27;47110;-87
2022/12/06 02:51:46;;;;;;;;;42.25;34.75;;;;;6.47;60.10;101948.66;2450575;28;45239;-87
2022/12/06 02:53:00;;;;;;;;;53.50;39.25;;;;;6.47;60.08;101951.28;2450919;27;46337;-87
2022/12/06 02:54:11;;;;;;;;;46.50;36.25;;;;;6.45;60.17;101946.03;2458856;27;44736;-88
2022/12/06 02:55:23;;;;;;;;;45.75;35.00;;;;;6.43;60.14;101949.50;2449771;28;46314;-87
2022/12/06 02:56:34;;;;;;;;;44.75;34.75;;;;;6.38;60.08;101944.25;2450420;28;45278;-87
2022/12/06 02:57:48;;;;;;;;;42.25;35.50;;;;;6.35;59.95;101952.06;2449839;28;47360;-87
2022/12/06 02:58:59;;;;;;;;;41.00;33.00;;;;;6.33;60.30;101944.25;2453321;27;45172;-87
2022/12/06 03:00:35;;;;;;;;;38.50;29.50;;;;;6.30;60.42;101952.06;2465223;27;48168;-88
2022/12/06 03:01:54;;;;;;;;;36.75;33.00;;;;;6.27;60.24;101947.69;2447743;28;45274;-87
2022/12/06 03:03:14;;;;;;;;;43.00;30.25;;;;;6.27;60.22;101946.84;2453865;27;46888;-87
2022/12/06 03:04:30;;;;;;;;;39.75;31.50;;;;;6.28;60.69;101948.56;2450483;27;44638;-87
2022/12/06 03:05:55;;;;;;;;;37.25;28.25;;;;;6.25;60.32;101946.81;2463110;27;47371;-87
2022/12/06 03:07:29;;;;;;;;;39.25;31.00;;;;;6.25;60.68;101954.66;2455101;27;44668;-87
2022/12/06 03:08:51;;;;;;;;;41.25;35.00;;;;;6.25;60.84;101946.81;2446060;28;47386;-87
2022/12/06 03:10:13;;;;;;;;;32.25;29.50;;;;;6.25;60.67;101951.16;2444516;28;45315;-87
2022/12/06 03:11:32;;;;;;;;;38.00;33.00;;;;;6.25;60.77;101954.66;2450404;28;45256;-87
2022/12/06 03:12:48;;;;;;;;;35.00;30.00;;;;;6.23;60.75;101951.16;2440515;28;45441;-87
2022/12/06 03:14:05;;;;;;;;;50.00;35.25;;;;;6.21;60.85;101955.50;2446511;28;45727;-87
2022/12/06 03:15:25;;;;;;;;;37.50;33.50;;;;;6.21;60.95;101955.50;2459841;27;45428;-87
2022/12/06 03:16:48;;;;;;;;;51.50;36.25;;;;;6.21;60.98;101957.22;2455983;27;45658;-87
2022/12/06 03:18:11;;;;;;;;;37.50;33.00;;;;;6.18;61.04;101947.66;2450028;28;45361;-87
2022/12/06 03:19:26;;;;;;;;;38.25;33.25;;;;;6.21;60.92;101954.63;2444668;28;47602;-87
2022/12/06 03:20:41;;;;;;;;;37.75;32.00;;;;;6.22;61.53;101954.66;2443417;28;45219;-88
2022/12/06 03:22:05;;;;;;;;;35.50;30.50;;;;;6.24;61.23;101952.91;2443513;28;47190;-87
2022/12/06 03:23:23;;;;;;;;;41.75;32.50;;;;;6.24;61.48;101957.25;2450282;27;45310;-87
2022/12/06 03:24:38;;;;;;;;;39.25;34.00;;;;;6.25;61.02;101953.75;2450307;28;45235;-88
2022/12/06 03:25:50;;;;;;;;;38.50;34.75;;;;;6.26;61.07;101958.13;2450075;27;45164;-88
2022/12/06 03:27:05;;;;;;;;;36.00;31.25;;;;;6.27;61.13;101957.28;2442871;28;47018;-87
2022/12/06 03:28:18;;;;;;;;;44.25;34.00;;;;;6.27;61.31;101952.91;2443461;28;45160;-87
2022/12/06 03:29:33;;;;;;;;;47.50;36.00;;;;;6.31;61.56;101945.97;2450204;28;46691;-88
2022/12/06 03:30:48;;;;;;;;;38.25;30.50;;;;;6.34;61.63;101958.19;2450811;27;45297;-87
2022/12/06 03:32:03;;;;;;;;;39.25;33.25;;;;;6.33;61.37;101954.69;2450440;27;45635;-87
2022/12/06 03:33:15;;;;;;;;;29.50;23.25;;;;;6.33;61.27;101952.06;2449950;28;45242;-87
2022/12/06 03:34:35;;;;;;;;;36.50;30.00;;;;;6.31;61.03;101953.81;2451036;28;46349;-87
2022/12/06 03:35:46;;;;;;;;;45.25;31.00;;;;;6.31;61.52;101948.59;2451760;27;45247;-87
2022/12/06 03:36:58;;;;;;;;;39.00;31.00;;;;;6.32;61.42;101957.31;2451845;28;45275;-87
2022/12/06 03:38:22;;;;;;;;;43.00;35.00;;;;;6.32;61.28;101954.69;2461525;27;45252;-87
2022/12/06 03:39:52;;;;;;;;;35.25;30.00;;;;;6.33;61.33;101956.41;2451365;28;48137;-88
2022/12/06 03:41:06;;;;;;;;;36.25;32.50;;;;;6.32;61.69;101955.56;2447406;28;44631;-87
2022/12/06 03:42:17;;;;;;;;;35.75;32.00;;;;;6.33;61.63;101956.41;2444559;28;48284;-88
2022/12/06 03:43:28;;;;;;;;;44.00;34.75;;;;;6.33;61.94;101962.53;2444656;28;45419;-87
2022/12/06 03:44:38;;;;;;;;;41.25;29.00;;;;;6.37;61.42;101963.41;2450722;28;46328;-87
2022/12/06 03:46:09;;;;;;;;;38.25;31.25;;;;;6.38;62.08;101954.69;2452447;27;44681;-87
2022/12/06 03:47:30;;;;;;;;;41.25;35.75;;;;;6.41;62.09;101954.72;2450868;28;47318;-87
2022/12/06 03:48:50;;;;;;;;;44.75;36.25;;;;;6.43;62.03;101953.00;2448046;28;45396;-87
2022/12/06 03:50:08;;;;;;;;;34.75;32.50;;;;;6.46;62.01;101949.53;2446177;28;47078;-88
2022/12/06 03:51:27;;;;;;;;;32.75;29.25;;;;;6.46;61.74;101952.13;2445482;28;45754;-87
2022/12/06 03:52:38;;;;;;;;;41.75;34.50;;;;;6.46;61.30;101946.91;2451365;28;47197;-87
2022/12/06 03:53:52;;;;;;;;;35.00;29.25;;;;;6.47;61.43;101949.50;2442801;28;45446;-87
2022/12/06 03:55:02;;;;;;;;;44.50;35.25;;;;;6.47;61.81;101943.44;2442129;28;47328;-87
2022/12/06 03:56:13;;;;;;;;;46.50;35.25;;;;;6.47;61.95;101944.28;2444498;28;45251;-87
2022/12/06 03:57:23;;;;;;;;;43.75;33.25;;;;;6.48;61.70;101946.03;2451420;28;46286;-87
2022/12/06 03:58:34;;;;;;;;;44.75;35.00;;;;;6.50;61.91;101946.91;2461232;27;45224;-87
2022/12/06 03:59:45;;;;;;;;;42.00;34.00;;;;;6.50;61.46;101939.09;2451285;28;47917;-87
2022/12/06 04:01:03;;;;;;;;;41.50;33.00;;;;;6.52;61.70;101944.31;2447575;28;45298;-87
2022/12/06 04:02:13;;;;;;;;;36.00;30.75;;;;;6.52;61.85;101937.34;2451234;28;47501;-87
2022/12/06 04:03:24;;;;;;;;;45.00;32.50;;;;;6.51;61.84;101943.47;2444303;28;45243;-87
2022/12/06 04:04:34;;;;;;;;;43.25;33.75;;;;;6.51;61.57;101945.19;2444863;28;46238;-88
2022/12/06 04:05:44;;;;;;;;;32.00;30.75;;;;;6.49;61.86;101942.59;2452388;27;45234;-88
2022/12/06 04:06:55;;;;;;;;;37.50;30.75;;;;;6.50;61.58;101946.91;2453355;27;47262;-87
2022/12/06 04:08:05;;;;;;;;;41.25;32.25;;;;;6.49;61.90;101947.81;2456052;27;45312;-87
2022/12/06 04:10:44;;;;;;;;;36.50;32.75;;;;;6.45;62.06;101945.16;2452077;28;45165;-88
2022/12/06 04:11:54;;;;;;;;;45.50;32.75;;;;;6.40;61.77;101939.91;2452040;27;45238;-88
2022/12/06 04:13:05;;;;;;;;;36.00;30.00;;;;;6.38;61.86;101950.34;2460953;27;45243;-87
2022/12/06 04:14:15;;;;;;;;;40.00;29.25;;;;;6.37;62.36;101953.81;2451163;28;48183;-87
2022/12/06 04:15:32;;;;;;;;;42.25;31.75;;;;;6.36;62.02;101951.22;2444331;28;45255;-87
2022/12/06 04:18:13;;;;;;;;;49.50;36.00;;;;;6.33;62.39;101951.19;2452137;28;45369;-87
2022/12/06 04:19:23;;;;;;;;;42.50;33.75;;;;;6.31;62.76;101953.81;2451114;28;48049;-87
2022/12/06 04:23:35;;;;;;;;;35.00;27.75;;;;;6.27;62.67;101952.06;2442704;28;45197;-87
2022/12/06 04:24:45;;;;;;;;;40.50;33.25;;;;;6.26;62.60;101951.19;2451815;28;45335;-87
2022/12/06 04:25:56;;;;;;;;;40.75;33.25;;;;;6.25;62.74;101946.81;2461089;27;45439;-87
2022/12/06 04:38:59;;;;;;;;;38.50;36.00;;;;;6.48;62.79;101951.28;2455734;27;45870;-87
2022/12/06 04:40:10;;;;;;;;;47.50;33.25;;;;;6.49;62.54;101944.31;2451879;27;44753;-87
2022/12/06 04:44:18;;;;;;;;;43.00;36.25;;;;;6.53;62.86;101939.09;2451471;28;45385;-87
2022/12/06 04:45:28;;;;;;;;;45.50;35.50;;;;;6.55;63.00;101941.72;2451067;28;45259;-87
2022/12/06 04:46:39;;;;;;;;;46.50;38.25;;;;;6.56;62.75;101938.25;2450367;28;47017;-87
2022/12/06 04:47:49;;;;;;;;;45.00;32.50;;;;;6.57;62.60;101944.34;2444099;28;45276;-87
2022/12/06 04:49:00;;;;;;;;;49.50;36.25;;;;;6.57;62.51;101936.50;2451061;28;45282;-87
2022/12/06 04:50:10;;;;;;;;;44.75;38.50;;;;;6.59;62.91;101933.00;2451813;27;45332;-88
2022/12/06 04:51:21;;;;;;;;;45.00;36.50;;;;;6.60;63.07;101937.38;2450806;28;47323;-87
2022/12/06 04:52:31;;;;;;;;;36.75;25.75;;;;;6.59;62.72;101935.63;2451151;28;44735;-88
2022/12/06 04:53:41;;;;;;;;;36.50;29.50;;;;;6.62;62.83;101939.97;2442425;28;46853;-87
2022/12/06 04:54:52;;;;;;;;;43.75;34.50;;;;;6.62;62.82;101938.25;2452038;27;45330;-87
2022/12/06 04:56:02;;;;;;;;;44.25;34.50;;;;;6.63;62.75;101934.78;2454210;27;46345;-87
2022/12/06 04:57:15;;;;;;;;;35.75;30.75;;;;;6.64;63.25;101936.50;2450832;28;45248;-87
2022/12/06 04:58:26;;;;;;;;;53.25;36.00;;;;;6.64;62.69;101931.28;2451250;28;45492;-87
2022/12/06 04:59:39;;;;;;;;;40.50;32.75;;;;;6.67;62.63;101930.41;2460860;27;45273;-87
2022/12/06 05:00:50;;;;;;;;;46.75;35.50;;;;;6.65;62.63;101926.94;2457513;27;47174;-88
2022/12/06 05:02:00;;;;;;;;;48.50;37.00;;;;;6.67;62.82;101935.66;2451135;28;44681;-87
2022/12/06 05:03:13;;;;;;;;;42.00;35.00;;;;;6.68;62.86;101937.41;2450569;28;47128;-87
2022/12/06 05:04:23;;;;;;;;;50.50;37.00;;;;;6.67;62.83;101937.41;2447426;28;45450;-87
2022/12/06 05:05:34;;;;;;;;;49.00;36.00;;;;;6.68;62.73;101940.00;2440846;28;46796;-87
2022/12/06 05:06:44;;;;;;;;;50.50;40.25;;;;;6.69;62.85;101933.91;2444187;28;44672;-88
2022/12/06 05:07:54;;;;;;;;;42.50;34.25;;;;;6.70;62.60;101940.88;2451543;27;45363;-87
2022/12/06 05:09:05;;;;;;;;;48.00;33.75;;;;;6.70;62.81;101934.78;2451666;27;44681;-87
2022/12/06 05:10:15;;;;;;;;;47.50;36.00;;;;;6.71;62.51;101936.53;2450269;27;46450;-87
2022/12/06 05:11:25;;;;;;;;;47.25;33.00;;;;;6.71;62.83;101934.81;2443686;27;45308;-87
2022/12/06 05:12:36;;;;;;;;;49.75;35.25;;;;;6.72;62.78;101927.81;2451311;27;45274;-87
2022/12/06 05:13:46;;;;;;;;;49.75;35.50;;;;;6.74;62.75;101931.34;2451185;27;44700;-87
2022/12/06 05:14:56;;;;;;;;;46.50;37.75;;;;;6.73;62.92;101925.22;2460670;27;48254;-87
2022/12/06 05:16:07;;;;;;;;;44.00;34.50;;;;;6.73;62.78;101924.34;2458204;27;45291;-87
2022/12/06 05:17:17;;;;;;;;;40.50;36.00;;;;;6.73;62.97;101925.22;2449860;28;48051;-87
2022/12/06 05:18:29;;;;;;;;;46.25;36.50;;;;;6.74;62.90;101920.88;2443212;28;44808;-87
2022/12/06 05:19:39;;;;;;;;;50.25;36.50;;;;;6.74;62.82;101920.88;2440820;28;47598;-87
2022/12/06 05:20:50;;;;;;;;;44.25;36.00;;;;;6.74;63.19;101920.88;2442814;28;45227;-87
2022/12/06 05:22:00;;;;;;;;;41.25;34.50;;;;;6.73;63.23;101925.22;2451109;28;45599;-87
2022/12/06 05:23:11;;;;;;;;;41.75;32.75;;;;;6.75;62.93;101926.09;2452596;27;44723;-87
2022/12/06 05:24:22;;;;;;;;;46.00;34.50;;;;;6.76;63.31;101924.38;2451375;28;45444;-87
2022/12/06 05:25:32;;;;;;;;;48.50;35.75;;;;;6.76;63.24;101921.75;2450730;28;45255;-87
2022/12/06 05:26:42;;;;;;;;;51.00;35.50;;;;;6.78;63.26;101924.34;2443627;28;48077;-88
2022/12/06 05:27:53;;;;;;;;;46.00;36.50;;;;;6.77;62.98;101920.88;2450557;28;45303;-87
2022/12/06 05:29:03;;;;;;;;;37.75;33.25;;;;;6.78;63.21;101919.13;2443537;28;46283;-87
2022/12/06 05:30:14;;;;;;;;;47.00;35.25;;;;;6.79;63.11;101921.72;2451243;28;45282;-87
2022/12/06 05:31:25;;;;;;;;;33.25;22.25;;;;;6.79;63.30;101924.34;2460387;27;46061;-87
2022/12/06 05:32:37;;;;;;;;;50.25;36.25;;;;;6.80;63.06;101923.50;2457719;27;44594;-87
2022/12/06 05:33:48;;;;;;;;;42.00;32.75;;;;;6.82;63.53;101923.47;2460445;27;47931;-87
2022/12/06 05:34:58;;;;;;;;;43.50;34.25;;;;;6.82;63.24;101926.09;2450841;28;45342;-87
2022/12/06 05:36:20;;;;;;;;;42.00;34.25;;;;;6.83;62.87;101920.88;2453194;27;47970;-87
2022/12/06 05:37:31;;;;;;;;;48.75;35.00;;;;;6.83;62.60;101925.25;2456687;27;44716;-87
2022/12/06 05:38:41;;;;;;;;;48.75;33.50;;;;;6.83;63.04;101915.66;2451314;27;46469;-87
2022/12/06 05:39:52;;;;;;;;;49.00;36.00;;;;;6.82;62.87;101916.53;2450820;28;44673;-87
2022/12/06 05:41:03;;;;;;;;;38.25;33.50;;;;;6.83;62.76;101917.41;2449349;28;46886;-87
2022/12/06 05:42:14;;;;;;;;;42.00;34.50;;;;;6.82;63.06;101919.13;2443635;28;45250;-87
2022/12/06 05:43:24;;;;;;;;;47.00;33.50;;;;;6.82;62.79;101921.75;2443216;28;48016;-87
2022/12/06 05:44:34;;;;;;;;;42.75;34.25;;;;;6.83;62.95;101922.63;2450821;28;44700;-87
2022/12/06 05:45:45;;;;;;;;;47.00;34.50;;;;;6.84;62.71;101919.16;2443311;28;46911;-87
2022/12/06 05:46:55;;;;;;;;;34.50;32.50;;;;;6.82;62.47;101913.91;2450490;28;45246;-87
2022/12/06 05:48:06;;;;;;;;;41.00;34.75;;;;;6.84;63.12;101913.94;2448884;28;48163;-87
2022/12/06 05:49:17;;;;;;;;;43.75;34.25;;;;;6.82;62.71;101913.03;2443773;28;45241;-87
2022/12/06 05:50:27;;;;;;;;;47.50;36.00;;;;;6.80;63.42;101913.03;2450764;28;46409;-87
2022/12/06 05:51:38;;;;;;;;;42.25;33.00;;;;;6.82;62.83;101920.88;2450570;28;45234;-87
2022/12/06 05:52:52;;;;;;;;;43.75;36.00;;;;;6.82;62.69;101918.25;2443187;28;47126;-87
2022/12/06 05:54:05;;;;;;;;;49.75;35.25;;;;;6.82;62.64;101913.03;2450906;28;45184;-87
2022/12/06 05:55:15;;;;;;;;;36.75;32.50;;;;;6.83;63.03;101912.16;2451102;27;45434;-87
2022/12/06 05:56:25;;;;;;;;;46.25;36.00;;;;;6.83;62.86;101907.81;2449843;27;45183;-88
2022/12/06 05:57:36;;;;;;;;;44.75;34.75;;;;;6.83;62.68;101909.56;2443084;28;47117;-87
2022/12/06 05:58:46;;;;;;;;;46.25;35.50;;;;;6.82;63.14;101913.91;2443611;28;45171;-87